createdAt,value
2017-05-17T00:01:00.987Z,20.59
2017-05-17T00:03:27.967Z,20.94
2017-05-17T00:05:54.306Z,21.10
2017-05-17T00:08:20.651Z,20.90
2017-05-17T00:10:47.021Z,20.23
2017-05-17T00:13:13.356Z,20.28
2017-05-17T00:15:39.690Z,20.02
2017-05-17T00:18:06.042Z,20.17
2017-05-17T00:20:32.388Z,20.25
2017-05-17T00:22:58.749Z,20.33
2017-05-17T00:25:25.082Z,21.14
2017-05-17T00:27:51.435Z,20.73
2017-05-17T00:30:17.757Z,20.71
2017-05-17T00:32:44.115Z,20.63
2017-05-17T00:35:10.496Z,20.47
2017-05-17T00:37:49.181Z,21.47
2017-05-17T00:40:27.544Z,21.79
2017-05-17T00:43:06.092Z,21.80
2017-05-17T00:45:44.374Z,21.49
2017-05-17T00:48:23.023Z,20.72
2017-05-17T00:51:01.366Z,21.02
2017-05-17T00:53:27.705Z,20.93
2017-05-17T00:55:54.081Z,20.68
2017-05-17T00:58:20.428Z,20.65
2017-05-17T01:00:46.765Z,20.44
2017-05-17T01:03:13.087Z,20.33
2017-05-17T01:05:39.453Z,20.65
2017-05-17T01:08:05.789Z,20.76
2017-05-17T01:10:32.142Z,20.49
2017-05-17T01:12:58.508Z,21.10
2017-05-17T01:15:24.859Z,21.23
2017-05-17T01:17:51.213Z,21.01
2017-05-17T01:20:17.582Z,20.83
2017-05-17T01:22:43.935Z,21.14
2017-05-17T01:25:10.272Z,21.20
2017-05-17T01:27:36.614Z,20.98
2017-05-17T01:30:03.019Z,20.85
2017-05-17T01:32:29.514Z,21.12
2017-05-17T01:34:55.893Z,20.76
2017-05-17T01:37:22.282Z,20.84
2017-05-17T01:39:48.655Z,21.46
2017-05-17T01:42:15.048Z,21.16
2017-05-17T01:44:41.444Z,21.47
2017-05-17T01:47:08.094Z,20.68
2017-05-17T01:49:34.454Z,20.35
2017-05-17T01:52:00.789Z,20.90
2017-05-17T01:54:27.137Z,21.07
2017-05-17T01:56:53.482Z,20.89
2017-05-17T01:59:19.848Z,21.05
2017-05-17T02:01:46.212Z,20.78
2017-05-17T02:04:12.588Z,21.06
2017-05-17T02:06:38.937Z,21.06
2017-05-17T02:09:05.298Z,20.93
2017-05-17T02:11:31.654Z,20.60
2017-05-17T02:13:58.022Z,21.14
2017-05-17T02:16:24.372Z,20.96
2017-05-17T02:18:50.696Z,20.93
2017-05-17T02:21:17.064Z,20.69
2017-05-17T02:23:43.433Z,20.51
2017-05-17T02:26:09.801Z,21.11
2017-05-17T02:28:36.199Z,20.94
2017-05-17T02:31:02.559Z,20.12
2017-05-17T02:33:28.905Z,20.88
2017-05-17T02:35:55.263Z,20.59
2017-05-17T02:38:21.627Z,20.68
2017-05-17T02:40:47.978Z,20.61
2017-05-17T02:43:14.331Z,20.62
2017-05-17T02:45:40.684Z,20.21
2017-05-17T02:48:07.033Z,20.30
2017-05-17T02:50:33.382Z,20.71
2017-05-17T02:52:59.748Z,20.09
2017-05-17T02:55:26.133Z,19.90
2017-05-17T02:57:52.530Z,20.07
2017-05-17T03:00:18.897Z,20.59
2017-05-17T03:02:45.272Z,19.60
2017-05-17T03:05:11.631Z,20.23
2017-05-17T03:07:37.969Z,19.84
2017-05-17T03:10:04.313Z,20.17
2017-05-17T03:12:30.644Z,19.99
2017-05-17T03:14:57.023Z,19.88
2017-05-17T03:17:23.401Z,19.73
2017-05-17T03:19:49.759Z,19.27
2017-05-17T03:22:16.078Z,19.94
2017-05-17T03:24:42.439Z,19.51
2017-05-17T03:27:08.814Z,19.41
2017-05-17T03:29:35.153Z,19.50
2017-05-17T03:32:01.530Z,19.52
2017-05-17T03:34:27.920Z,19.69
2017-05-17T03:36:54.264Z,19.51
2017-05-17T03:39:20.608Z,19.15
2017-05-17T03:41:46.953Z,19.61
2017-05-17T03:44:13.303Z,20.02
2017-05-17T03:46:39.657Z,19.71
2017-05-17T03:49:05.995Z,19.48
2017-05-17T03:51:32.331Z,19.24
2017-05-17T03:53:58.680Z,19.22
2017-05-17T03:56:25.036Z,18.92
2017-05-17T03:58:51.383Z,18.92
2017-05-17T04:01:17.744Z,19.19
2017-05-17T04:03:44.099Z,19.51
2017-05-17T04:06:10.457Z,19.07
2017-05-17T04:08:36.814Z,19.77
2017-05-17T04:11:03.169Z,19.74
2017-05-17T04:13:29.523Z,19.77
2017-05-17T04:15:55.893Z,19.65
2017-05-17T04:18:22.249Z,20.07
2017-05-17T04:20:48.593Z,20.27
2017-05-17T04:23:14.944Z,19.63
2017-05-17T04:25:41.328Z,20.02
2017-05-17T04:28:07.652Z,20.23
2017-05-17T04:30:34.012Z,19.46
2017-05-17T04:33:00.375Z,19.32
2017-05-17T04:35:26.710Z,19.73
2017-05-17T04:37:53.039Z,19.58
2017-05-17T04:40:19.359Z,19.55
2017-05-17T04:42:45.715Z,19.85
2017-05-17T04:45:12.085Z,19.44
2017-05-17T04:47:38.421Z,19.79
2017-05-17T04:50:04.777Z,19.72
2017-05-17T04:52:31.165Z,19.78
2017-05-17T04:54:57.559Z,19.59
2017-05-17T04:57:23.914Z,20.26
2017-05-17T04:59:50.309Z,19.96
2017-05-17T05:02:16.702Z,19.76
2017-05-17T05:04:43.045Z,19.77
2017-05-17T05:07:09.405Z,20.23
2017-05-17T05:09:35.785Z,20.17
2017-05-17T05:12:02.126Z,19.88
2017-05-17T05:14:28.513Z,19.73
2017-05-17T05:16:54.870Z,19.83
2017-05-17T05:19:21.223Z,19.73
2017-05-17T05:21:47.637Z,19.92
2017-05-17T05:24:14.009Z,19.93
2017-05-17T05:26:40.376Z,19.92
2017-05-17T05:29:06.748Z,19.96
2017-05-17T05:31:33.129Z,20.03
2017-05-17T05:34:00.019Z,20.35
2017-05-17T05:36:26.440Z,20.12
2017-05-17T05:38:52.813Z,20.23
2017-05-17T05:41:19.184Z,20.25
2017-05-17T05:43:45.558Z,20.33
2017-05-17T05:46:11.975Z,20.58
2017-05-17T05:48:38.336Z,20.16
2017-05-17T05:51:04.697Z,20.31
2017-05-17T05:53:31.090Z,20.35
2017-05-17T05:55:57.476Z,20.29
2017-05-17T05:58:23.829Z,20.54
2017-05-17T06:00:50.180Z,20.29
2017-05-17T06:03:16.491Z,20.24
2017-05-17T06:05:42.879Z,20.50
2017-05-17T06:08:09.235Z,20.73
2017-05-17T06:10:35.575Z,20.37
2017-05-17T06:13:01.928Z,20.42
2017-05-17T06:15:28.263Z,20.43
2017-05-17T06:17:54.681Z,20.61
2017-05-17T06:20:21.024Z,20.73
2017-05-17T06:22:47.413Z,20.85
2017-05-17T06:25:13.742Z,20.66
2017-05-17T06:27:40.082Z,21.00
2017-05-17T06:30:06.435Z,20.87
2017-05-17T06:32:32.815Z,20.81
2017-05-17T06:34:59.182Z,21.00
2017-05-17T06:37:25.546Z,20.84
2017-05-17T06:39:51.873Z,21.01
2017-05-17T06:42:18.222Z,21.13
2017-05-17T06:44:44.574Z,21.37
2017-05-17T06:47:10.935Z,21.49
2017-05-17T06:49:37.288Z,21.61
2017-05-17T06:52:03.602Z,21.63
2017-05-17T06:54:29.960Z,21.75
2017-05-17T06:56:56.296Z,21.75
2017-05-17T06:59:22.624Z,22.02
2017-05-17T07:01:48.992Z,22.05
2017-05-17T07:04:15.344Z,22.23
2017-05-17T07:06:41.696Z,22.47
2017-05-17T07:09:08.041Z,22.44
2017-05-17T07:11:34.460Z,22.46
2017-05-17T07:14:00.791Z,22.52
2017-05-17T07:16:27.157Z,22.79
2017-05-17T07:18:53.541Z,22.77
2017-05-17T07:21:19.962Z,22.74
2017-05-17T07:23:46.288Z,22.88
2017-05-17T07:26:12.664Z,23.04
2017-05-17T07:28:39.008Z,23.12
2017-05-17T07:31:05.371Z,23.23
2017-05-17T07:33:31.719Z,23.34
2017-05-17T07:35:58.094Z,23.77
2017-05-17T07:38:24.480Z,23.64
2017-05-17T07:40:50.825Z,23.69
2017-05-17T07:43:17.130Z,23.66
2017-05-17T07:45:43.465Z,23.55
2017-05-17T07:48:09.820Z,23.76
2017-05-17T07:50:36.158Z,23.84
2017-05-17T07:53:02.518Z,23.83
2017-05-17T07:55:28.839Z,24.16
2017-05-17T07:57:55.209Z,24.19
2017-05-17T08:00:21.588Z,24.24
2017-05-17T08:02:47.914Z,24.29
2017-05-17T08:05:14.246Z,24.59
2017-05-17T08:07:40.594Z,24.45
2017-05-17T08:10:06.930Z,24.78
2017-05-17T08:12:33.286Z,24.66
2017-05-17T08:14:59.610Z,24.66
2017-05-17T08:17:26.025Z,24.86
2017-05-17T08:19:52.380Z,24.98
2017-05-17T08:22:18.738Z,25.00
2017-05-17T08:24:45.087Z,25.12
2017-05-17T08:27:11.419Z,25.24
2017-05-17T08:29:37.774Z,25.43
2017-05-17T08:32:04.122Z,25.26
2017-05-17T08:34:30.479Z,25.59
2017-05-17T08:36:56.888Z,26.17
2017-05-17T08:39:23.230Z,25.86
2017-05-17T08:41:49.570Z,25.97
2017-05-17T08:44:15.882Z,26.08
2017-05-17T08:46:42.249Z,26.27
2017-05-17T08:49:08.619Z,26.03
2017-05-17T08:51:35.005Z,26.08
2017-05-17T08:54:01.339Z,26.16
2017-05-17T08:56:27.704Z,26.49
2017-05-17T08:58:54.049Z,26.60
2017-05-17T09:01:20.390Z,26.59
2017-05-17T09:03:46.735Z,27.05
2017-05-17T09:06:13.094Z,27.22
2017-05-17T09:08:39.459Z,27.02
2017-05-17T09:11:05.794Z,26.94
2017-05-17T09:13:32.125Z,27.36
2017-05-17T09:15:58.517Z,27.49
2017-05-17T09:18:24.861Z,27.71
2017-05-17T09:20:51.226Z,27.71
2017-05-17T09:23:17.621Z,27.75
2017-05-17T09:25:43.982Z,27.71
2017-05-17T09:28:10.326Z,27.73
2017-05-17T09:30:36.658Z,28.02
2017-05-17T09:33:03.023Z,28.05
2017-05-17T09:35:29.370Z,27.74
2017-05-17T09:37:55.725Z,28.16
2017-05-17T09:40:22.074Z,28.28
2017-05-17T09:42:48.429Z,28.28
2017-05-17T09:45:14.753Z,28.82
2017-05-17T09:47:41.104Z,28.57
2017-05-17T09:50:07.445Z,28.65
2017-05-17T09:52:33.830Z,28.96
2017-05-17T09:55:00.153Z,29.01
2017-05-17T09:57:26.487Z,28.94
2017-05-17T09:59:52.824Z,29.32
2017-05-17T10:02:19.191Z,29.54
2017-05-17T10:04:45.515Z,28.93
2017-05-17T10:07:11.857Z,29.26
2017-05-17T10:09:38.210Z,29.57
2017-05-17T10:12:04.553Z,29.69
2017-05-17T10:14:30.877Z,29.78
2017-05-17T10:16:57.212Z,29.89
2017-05-17T10:19:23.550Z,29.59
2017-05-17T10:21:49.880Z,29.59
2017-05-17T10:24:16.218Z,30.05
2017-05-17T10:26:42.562Z,30.26
2017-05-17T10:29:08.911Z,30.11
2017-05-17T10:31:35.254Z,29.34
2017-05-17T10:34:01.588Z,29.84
2017-05-17T10:36:27.913Z,30.06
2017-05-17T10:38:54.222Z,30.36
2017-05-17T10:41:20.574Z,30.07
2017-05-17T10:43:46.906Z,30.14
2017-05-17T10:46:13.284Z,30.26
2017-05-17T10:48:39.616Z,30.63
2017-05-17T10:51:05.979Z,30.74
2017-05-17T10:53:32.320Z,30.35
2017-05-17T10:55:58.664Z,30.42
2017-05-17T10:58:25.041Z,29.94
2017-05-17T11:00:51.359Z,30.19
2017-05-17T11:03:17.693Z,30.81
2017-05-17T11:05:44.027Z,30.87
2017-05-17T11:08:10.374Z,30.55
2017-05-17T11:10:36.734Z,30.81
2017-05-17T11:13:03.085Z,30.40
2017-05-17T11:15:29.457Z,30.40
2017-05-17T11:17:55.820Z,30.98
2017-05-17T11:20:22.167Z,30.74
2017-05-17T11:22:48.509Z,30.75
2017-05-17T11:25:14.861Z,30.93
2017-05-17T11:27:41.211Z,30.84
2017-05-17T11:30:07.564Z,31.16
2017-05-17T11:32:33.893Z,31.36
2017-05-17T11:35:00.239Z,30.52
2017-05-17T11:37:26.602Z,31.00
2017-05-17T11:39:52.956Z,31.25
2017-05-17T11:42:19.294Z,31.30
2017-05-17T11:44:45.665Z,30.88
2017-05-17T11:47:12.054Z,31.09
2017-05-17T11:49:38.421Z,31.25
2017-05-17T11:52:04.769Z,31.15
2017-05-17T11:54:31.447Z,31.45
2017-05-17T11:56:57.768Z,31.89
2017-05-17T11:59:24.118Z,31.72
2017-05-17T12:01:50.479Z,31.95
2017-05-17T12:04:16.841Z,31.35
2017-05-17T12:06:43.183Z,31.34
2017-05-17T12:09:09.525Z,31.73
2017-05-17T12:11:35.866Z,31.76
2017-05-17T12:14:02.238Z,31.79
2017-05-17T12:16:28.591Z,31.55
2017-05-17T12:18:54.949Z,31.23
2017-05-17T12:21:21.307Z,31.61
2017-05-17T12:23:47.703Z,32.13
2017-05-17T12:26:14.065Z,32.50
2017-05-17T12:28:40.395Z,31.87
2017-05-17T12:31:06.843Z,32.24
2017-05-17T12:33:33.221Z,32.22
2017-05-17T12:35:59.573Z,31.91
2017-05-17T12:38:25.943Z,32.20
2017-05-17T12:40:52.312Z,31.99
2017-05-17T12:43:18.634Z,32.18
2017-05-17T12:45:45.003Z,31.59
2017-05-17T12:48:11.348Z,31.56
2017-05-17T12:50:42.079Z,32.67
2017-05-17T12:53:08.541Z,31.69
2017-05-17T12:55:34.851Z,32.55
2017-05-17T12:58:01.190Z,32.19
2017-05-17T13:00:27.530Z,32.74
2017-05-17T13:02:53.882Z,32.05
2017-05-17T13:05:20.240Z,31.99
2017-05-17T13:07:46.610Z,32.23
2017-05-17T13:10:13.044Z,31.96
2017-05-17T13:12:39.415Z,32.09
2017-05-17T13:15:05.757Z,32.35
2017-05-17T13:17:32.128Z,32.48
2017-05-17T13:19:58.474Z,33.18
2017-05-17T13:22:24.806Z,32.56
2017-05-17T13:24:51.138Z,32.17
2017-05-17T13:27:17.501Z,32.42
2017-05-17T13:29:43.915Z,32.58
2017-05-17T13:32:10.294Z,32.67
2017-05-17T13:34:36.635Z,32.61
2017-05-17T13:37:02.970Z,33.10
2017-05-17T13:39:29.321Z,32.65
2017-05-17T13:41:55.658Z,32.79
2017-05-17T13:44:22.008Z,32.44
2017-05-17T13:46:49.101Z,33.19
2017-05-17T13:49:15.710Z,32.46
2017-05-17T13:51:42.128Z,32.87
2017-05-17T13:54:08.477Z,32.47
2017-05-17T13:56:34.832Z,33.72
2017-05-17T13:59:01.226Z,32.91
2017-05-17T14:01:27.608Z,32.74
2017-05-17T14:03:53.958Z,32.51
2017-05-17T14:06:20.291Z,33.03
2017-05-17T14:08:46.781Z,32.90
2017-05-17T14:11:13.217Z,32.51
2017-05-17T14:13:39.808Z,32.52
2017-05-17T14:16:06.163Z,32.95
2017-05-17T14:18:32.507Z,32.94
2017-05-17T14:20:58.854Z,32.81
2017-05-17T14:23:25.838Z,33.16
2017-05-17T14:25:52.178Z,32.87
2017-05-17T14:28:18.520Z,34.05
2017-05-17T14:30:44.931Z,33.52
2017-05-17T14:33:11.270Z,33.34
2017-05-17T14:35:37.630Z,33.60
2017-05-17T14:38:03.960Z,33.07
2017-05-17T14:40:30.297Z,33.20
2017-05-17T14:42:56.678Z,33.25
2017-05-17T14:45:23.011Z,33.19
2017-05-17T14:47:49.397Z,32.60
2017-05-17T14:50:15.764Z,32.97
2017-05-17T14:52:42.191Z,32.90
2017-05-17T14:55:09.432Z,33.24
2017-05-17T14:57:35.813Z,32.43
2017-05-17T15:00:02.173Z,32.72
2017-05-17T15:02:28.508Z,32.95
2017-05-17T15:04:54.848Z,33.29
2017-05-17T15:07:21.208Z,32.75
2017-05-17T15:09:47.522Z,33.75
2017-05-17T15:12:13.889Z,33.18
2017-05-17T15:14:40.217Z,32.94
2017-05-17T15:17:06.530Z,33.50
2017-05-17T15:19:32.887Z,33.11
2017-05-17T15:21:59.278Z,32.73
2017-05-17T15:24:25.635Z,33.41
2017-05-17T15:26:51.999Z,32.71
2017-05-17T15:29:18.344Z,33.53
2017-05-17T15:31:44.697Z,32.44
2017-05-17T15:34:11.054Z,32.86
2017-05-17T15:36:37.435Z,33.35
2017-05-17T15:39:04.232Z,33.38
2017-05-17T15:41:30.589Z,32.71
2017-05-17T15:43:56.924Z,32.57
2017-05-17T15:46:23.270Z,32.37
2017-05-17T15:48:49.610Z,33.12
2017-05-17T15:51:15.935Z,32.98
2017-05-17T15:53:42.471Z,32.96
2017-05-17T15:56:08.808Z,32.81
2017-05-17T15:58:35.161Z,32.26
2017-05-17T16:01:01.524Z,32.04
2017-05-17T16:03:27.903Z,32.57
2017-05-17T16:05:54.309Z,32.36
2017-05-17T16:10:42.080Z,32.30
2017-05-17T16:13:08.441Z,32.16
2017-05-17T16:15:34.779Z,32.10
2017-05-17T16:18:01.118Z,32.08
2017-05-17T16:20:27.520Z,32.11
2017-05-17T16:22:53.865Z,31.71
2017-05-17T16:25:20.240Z,31.80
2017-05-17T16:27:46.598Z,31.75
2017-05-17T16:30:13.012Z,31.60
2017-05-17T16:32:39.389Z,31.85
2017-05-17T16:35:05.760Z,31.76
2017-05-17T16:37:32.172Z,32.00
2017-05-17T16:39:58.500Z,31.65
2017-05-17T16:42:24.824Z,31.50
2017-05-17T16:44:51.182Z,31.85
2017-05-17T16:47:17.512Z,31.53
2017-05-17T16:49:43.859Z,31.59
2017-05-17T16:52:10.555Z,31.76
2017-05-17T16:54:36.899Z,31.57
2017-05-17T16:57:03.243Z,31.78
2017-05-17T16:59:29.582Z,31.25
2017-05-17T17:01:55.921Z,31.53
2017-05-17T17:04:22.294Z,31.50
2017-05-17T17:06:48.642Z,31.14
2017-05-17T17:09:14.992Z,31.49
2017-05-17T17:11:41.306Z,30.95
2017-05-17T17:14:07.682Z,31.25
2017-05-17T17:16:34.096Z,31.15
2017-05-17T17:19:00.419Z,31.02
2017-05-17T17:21:26.764Z,30.86
2017-05-17T17:23:53.121Z,30.89
2017-05-17T17:26:19.473Z,30.99
2017-05-17T17:28:45.811Z,30.61
2017-05-17T17:31:12.182Z,30.42
2017-05-17T17:33:38.504Z,30.23
2017-05-17T17:36:04.881Z,30.45
2017-05-17T17:38:31.207Z,30.19
2017-05-17T17:40:57.562Z,30.20
2017-05-17T17:43:23.913Z,30.03
2017-05-17T17:45:50.233Z,29.80
2017-05-17T17:48:16.573Z,29.77
2017-05-17T17:50:42.899Z,29.87
2017-05-17T17:53:09.236Z,29.60
2017-05-17T17:55:35.564Z,29.38
2017-05-17T17:58:01.917Z,29.50
2017-05-17T18:00:28.270Z,29.55
2017-05-17T18:02:54.642Z,29.42
2017-05-17T18:05:20.998Z,29.37
2017-05-17T18:07:47.330Z,29.20
2017-05-17T18:10:13.673Z,29.21
2017-05-17T18:12:40.006Z,29.18
2017-05-17T18:15:06.330Z,29.43
2017-05-17T18:17:32.701Z,29.11
2017-05-17T18:19:59.046Z,28.83
2017-05-17T18:22:25.387Z,28.81
2017-05-17T18:24:51.740Z,28.97
2017-05-17T18:27:18.083Z,28.74
2017-05-17T18:29:51.242Z,28.69
2017-05-17T18:32:17.593Z,28.83
2017-05-17T18:34:43.939Z,28.67
2017-05-17T18:37:10.270Z,28.26
2017-05-17T18:39:36.609Z,28.66
2017-05-17T18:42:02.937Z,28.48
2017-05-17T18:44:29.260Z,28.43
2017-05-17T18:46:55.603Z,28.38
2017-05-17T18:49:21.947Z,28.27
2017-05-17T18:51:48.299Z,28.14
2017-05-17T18:54:14.633Z,27.97
2017-05-17T18:56:40.996Z,28.09
2017-05-17T18:59:07.377Z,28.04
2017-05-17T19:01:33.739Z,27.90
2017-05-17T19:04:00.071Z,27.81
2017-05-17T19:06:26.417Z,27.91
2017-05-17T19:08:52.782Z,27.82
2017-05-17T19:11:19.123Z,27.56
2017-05-17T19:13:45.470Z,27.56
2017-05-17T19:16:11.857Z,27.64
2017-05-17T19:18:38.194Z,27.47
2017-05-17T19:21:04.554Z,27.67
2017-05-17T19:23:30.916Z,27.66
2017-05-17T19:25:57.292Z,27.52
2017-05-17T19:28:23.623Z,27.53
2017-05-17T19:30:50.129Z,27.45
2017-05-17T19:33:16.510Z,27.38
2017-05-17T19:35:43.258Z,27.32
2017-05-17T19:38:10.261Z,27.11
2017-05-17T19:40:36.638Z,27.12
2017-05-17T19:43:03.025Z,27.19
2017-05-17T19:45:29.472Z,27.06
2017-05-17T19:47:55.903Z,26.95
2017-05-17T19:50:22.235Z,26.84
2017-05-17T19:52:48.581Z,26.62
2017-05-17T19:55:14.940Z,26.77
2017-05-17T19:57:41.278Z,26.70
2017-05-17T20:00:07.649Z,26.53
2017-05-17T20:02:33.986Z,26.60
2017-05-17T20:05:00.348Z,26.43
2017-05-17T20:07:26.708Z,26.32
2017-05-17T20:09:53.062Z,26.30
2017-05-17T20:12:19.429Z,26.43
2017-05-17T20:14:45.775Z,26.28
2017-05-17T20:17:12.090Z,26.21
2017-05-17T20:19:38.568Z,26.21
2017-05-17T20:22:04.890Z,25.99
2017-05-17T20:24:31.235Z,26.17
2017-05-17T20:26:57.628Z,26.28
2017-05-17T20:29:24.057Z,26.22
2017-05-17T20:31:50.447Z,26.10
2017-05-17T20:34:17.288Z,26.10
2017-05-17T20:36:43.710Z,26.12
2017-05-17T20:39:10.055Z,26.27
2017-05-17T20:41:36.433Z,26.19
2017-05-17T20:44:02.774Z,26.03
2017-05-17T20:46:29.171Z,25.85
2017-05-17T20:48:55.515Z,26.06
2017-05-17T20:51:21.842Z,25.77
2017-05-17T20:53:48.188Z,25.88
2017-05-17T20:56:14.525Z,25.95
2017-05-17T20:58:40.903Z,25.93
2017-05-17T21:01:07.245Z,25.80
2017-05-17T21:03:33.604Z,25.87
2017-05-17T21:05:59.956Z,25.48
2017-05-17T21:08:26.297Z,25.89
2017-05-17T21:10:52.646Z,25.77
2017-05-17T21:13:19.054Z,25.76
2017-05-17T21:15:45.446Z,25.70
2017-05-17T21:18:11.799Z,25.81
2017-05-17T21:20:38.136Z,25.76
2017-05-17T21:23:04.579Z,25.81
2017-05-17T21:25:32.184Z,25.66
2017-05-17T21:27:58.569Z,25.50
2017-05-17T21:30:24.918Z,25.53
2017-05-17T21:32:51.263Z,25.58
2017-05-17T21:35:17.636Z,25.39
2017-05-17T21:37:43.982Z,25.59
2017-05-17T21:40:10.341Z,25.55
2017-05-17T21:42:36.710Z,25.46
2017-05-17T21:45:03.030Z,25.52
2017-05-17T21:47:29.363Z,25.36
2017-05-17T21:49:55.737Z,25.53
2017-05-17T21:52:22.080Z,25.47
2017-05-17T21:54:48.432Z,25.39
2017-05-17T21:57:14.824Z,25.43
2017-05-17T21:59:41.142Z,25.43
2017-05-17T22:02:07.478Z,25.52
2017-05-17T22:04:33.841Z,25.45
2017-05-17T22:07:00.889Z,25.42
2017-05-17T22:09:27.436Z,25.36
2017-05-17T22:11:53.767Z,25.27
2017-05-17T22:14:20.105Z,25.33
2017-05-17T22:16:46.441Z,25.29
2017-05-17T22:19:12.783Z,25.34
2017-05-17T22:21:39.130Z,25.07
2017-05-17T22:24:05.436Z,25.15
2017-05-17T22:26:31.773Z,25.26
2017-05-17T22:28:58.098Z,25.28
2017-05-17T22:31:24.515Z,25.08
2017-05-17T22:33:50.872Z,25.00
2017-05-17T22:36:17.212Z,25.13
2017-05-17T22:38:43.552Z,25.03
2017-05-17T22:41:09.952Z,25.06
2017-05-17T22:43:36.297Z,25.03
2017-05-17T22:46:02.703Z,24.93
2017-05-17T22:48:29.078Z,24.78
2017-05-17T22:50:55.433Z,25.02
2017-05-17T22:53:21.770Z,24.87
2017-05-17T22:55:48.175Z,24.87
2017-05-17T22:58:14.561Z,24.97
2017-05-17T23:00:40.917Z,24.98
2017-05-17T23:03:07.270Z,24.91
2017-05-17T23:05:33.619Z,24.89
2017-05-17T23:08:00.582Z,24.80
2017-05-17T23:10:27.025Z,24.92
2017-05-17T23:12:53.383Z,24.77
2017-05-17T23:15:19.907Z,24.78
2017-05-17T23:17:46.301Z,24.73
2017-05-17T23:20:12.652Z,24.78
2017-05-17T23:22:39.045Z,24.73
2017-05-17T23:25:05.399Z,24.60
2017-05-17T23:27:32.161Z,24.75
2017-05-17T23:29:59.169Z,24.62
2017-05-17T23:32:25.860Z,24.64
2017-05-17T23:34:52.224Z,24.57
2017-05-17T23:37:18.587Z,24.54
2017-05-17T23:39:44.969Z,24.65
2017-05-17T23:42:11.626Z,24.63
2017-05-17T23:44:38.521Z,24.66
2017-05-17T23:47:05.278Z,24.39
2017-05-17T23:49:31.783Z,24.60
2017-05-17T23:51:58.301Z,24.40
2017-05-17T23:54:24.762Z,24.51
2017-05-17T23:56:51.146Z,24.32
2017-05-17T23:59:17.626Z,24.16
